Time;durP1;ratioP1;P1;durP2;ratioP2;P2;SDS_P1;SDS_P2;PMS_P1;PMS_P2;Temp;Humidity;BMP_temperature;BMP_pressure;BME280_temperature;BME280_humidity;BME280_pressure;Samples;Min_cycle;Max_cycle;Signal;HPM_P1;HPM_P2
2023/10/18 00:00:19;;;;;;;11.45;5.18;;;20.50;79.50;;;;;;6244635;23;20003;-77
2023/10/18 00:02:49;;;;;;;8.85;5.30;;;20.50;80.10;;;;;;6244676;23;20427;-78
2023/10/18 00:05:20;;;;;;;6.78;4.60;;;20.50;79.90;;;;;;6246677;23;20095;-77
2023/10/18 00:07:51;;;;;;;10.68;5.10;;;20.50;79.50;;;;;;6246958;23;20322;-76
2023/10/18 00:10:17;;;;;;;9.02;5.05;;;20.50;79.40;;;;;;6246408;23;20034;-77
2023/10/18 00:12:44;;;;;;;11.70;5.63;;;20.50;79.60;;;;;;6247260;23;20024;-77
2023/10/18 00:15:11;;;;;;;11.60;5.38;;;20.50;79.40;;;;;;6246732;23;20029;-76
2023/10/18 00:17:38;;;;;;;9.73;5.32;;;20.50;79.60;;;;;;6246810;23;19996;-77
2023/10/18 00:20:25;;;;;;;10.05;5.50;;;20.50;79.60;;;;;;6219868;23;20008;-76
2023/10/18 00:22:51;;;;;;;10.20;5.20;;;20.50;79.90;;;;;;6247077;23;19996;-77
2023/10/18 00:25:19;;;;;;;11.45;5.95;;;20.50;79.80;;;;;;6246922;23;20087;-76
2023/10/18 00:27:45;;;;;;;10.27;5.38;;;20.50;79.70;;;;;;6246883;23;20032;-77
2023/10/18 00:30:11;;;;;;;9.05;5.90;;;20.40;79.80;;;;;;6246277;23;20004;-78
2023/10/18 00:32:42;;;;;;;13.07;5.80;;;20.40;79.90;;;;;;6246505;23;20430;-76
2023/10/18 00:37:56;;;;;;;12.07;6.35;;;20.40;80.00;;;;;;6223603;23;20027;-77
2023/10/18 00:42:53;;;;;;;9.98;6.25;;;20.40;80.30;;;;;;6249167;23;20010;-78
2023/10/18 00:45:21;;;;;;;15.68;6.25;;;20.40;79.90;;;;;;6219124;23;20016;-76
2023/10/18 00:47:48;;;;;;;11.02;5.97;;;20.40;80.00;;;;;;6246390;23;20047;-76
2023/10/18 00:50:15;;;;;;;12.57;5.53;;;20.40;80.10;;;;;;6246020;23;20011;-78
2023/10/18 00:52:41;;;;;;;13.27;5.97;;;20.40;80.20;;;;;;6245954;23;19996;-77
2023/10/18 00:55:09;;;;;;;11.02;5.47;;;20.40;80.20;;;;;;6246071;23;20075;-78
2023/10/18 00:57:37;;;;;;;11.73;6.07;;;20.40;80.40;;;;;;6246204;23;20075;-76
2023/10/18 01:00:07;;;;;;;12.35;5.43;;;20.40;80.30;;;;;;6246185;23;20008;-77
2023/10/18 01:02:39;;;;;;;13.10;6.82;;;20.30;80.60;;;;;;6245984;23;20004;-77
2023/10/18 01:05:10;;;;;;;12.43;6.35;;;20.30;80.30;;;;;;6246138;23;20020;-78
2023/10/18 01:07:36;;;;;;;15.15;5.80;;;20.30;80.60;;;;;;6246383;23;20062;-77
2023/10/18 01:10:07;;;;;;;9.38;4.70;;;20.30;80.70;;;;;;6246978;23;20024;-78
2023/10/18 01:12:34;;;;;;;11.20;5.25;;;20.30;80.70;;;;;;6218925;23;20447;-77
2023/10/18 01:15:01;;;;;;;16.27;5.32;;;20.20;80.50;;;;;;6245462;23;20135;-77
2023/10/18 01:17:27;;;;;;;14.20;5.57;;;20.20;80.80;;;;;;6246020;23;20054;-77
2023/10/18 01:19:57;;;;;;;13.18;6.22;;;20.20;80.90;;;;;;6245950;23;20007;-77
2023/10/18 01:22:24;;;;;;;12.23;5.60;;;20.20;80.90;;;;;;6246559;23;20256;-77
2023/10/18 01:24:50;;;;;;;10.10;5.70;;;20.30;81.00;;;;;;6218867;23;20450;-77
2023/10/18 01:27:17;;;;;;;10.65;4.90;;;20.30;80.90;;;;;;6245815;23;20430;-78
2023/10/18 01:29:43;;;;;;;9.55;4.75;;;20.20;80.80;;;;;;6246587;23;20334;-77
2023/10/18 01:32:09;;;;;;;8.13;4.63;;;20.20;80.90;;;;;;6246547;23;20012;-77
2023/10/18 01:34:37;;;;;;;10.07;4.72;;;20.20;81.00;;;;;;6219628;23;20016;-77
2023/10/18 01:37:02;;;;;;;11.88;5.30;;;20.20;81.00;;;;;;6245975;23;20003;-78
2023/10/18 01:39:29;;;;;;;8.82;4.78;;;20.10;81.10;;;;;;6245904;23;20004;-76
2023/10/18 01:41:55;;;;;;;7.85;4.05;;;20.10;81.20;;;;;;6245438;23;19997;-78
2023/10/18 01:44:33;;;;;;;10.10;4.28;;;20.10;81.30;;;;;;6219121;23;20070;-77
2023/10/18 01:47:06;;;;;;;8.90;4.30;;;20.10;81.60;;;;;;6246192;23;20007;-76
2023/10/18 01:49:38;;;;;;;8.90;4.30;;;20.10;81.60;;;;;;6247010;23;20437;-77
2023/10/18 01:52:06;;;;;;;8.18;4.05;;;20.10;81.20;;;;;;6246241;23;19996;-78
2023/10/18 01:54:32;;;;;;;9.00;3.80;;;20.10;81.30;;;;;;6245872;23;20000;-77
2023/10/18 01:56:58;;;;;;;8.73;4.03;;;20.10;81.60;;;;;;6246701;23;20007;-77
2023/10/18 01:59:27;;;;;;;7.47;4.07;;;20.10;81.40;;;;;;6245905;23;20017;-77
2023/10/18 02:01:56;;;;;;;7.60;4.03;;;20.10;81.50;;;;;;6246025;23;20000;-77
2023/10/18 02:04:25;;;;;;;8.15;3.75;;;20.00;81.50;;;;;;6245990;23;20016;-77
2023/10/18 02:07:02;;;;;;;10.40;3.88;;;20.00;82.10;;;;;;6246142;23;20003;-78
2023/10/18 02:09:47;;;;;;;6.93;4.20;;;20.00;82.20;;;;;;6245874;22;20104;-76
2023/10/18 02:12:17;;;;;;;8.38;3.90;;;20.00;82.20;;;;;;6246793;23;20018;-76
2023/10/18 02:14:42;;;;;;;8.63;3.95;;;20.00;81.80;;;;;;6245821;23;20000;-76
2023/10/18 02:17:09;;;;;;;8.63;3.80;;;20.00;81.90;;;;;;6245797;23;20015;-77
2023/10/18 02:19:37;;;;;;;6.97;4.15;;;20.00;82.00;;;;;;6246081;23;20004;-76
2023/10/18 02:22:07;;;;;;;9.85;3.60;;;20.00;82.10;;;;;;6245813;23;20000;-77
2023/10/18 02:24:38;;;;;;;8.52;3.85;;;19.90;82.00;;;;;;6233835;23;20092;-77
2023/10/18 02:27:08;;;;;;;8.82;3.70;;;19.90;82.50;;;;;;6244961;23;20067;-77
2023/10/18 02:29:34;;;;;;;6.97;4.07;;;19.80;82.10;;;;;;6218292;23;20011;-76
2023/10/18 02:32:04;;;;;;;8.20;4.03;;;19.80;82.20;;;;;;6244914;23;20421;-77
2023/10/18 02:34:33;;;;;;;6.65;4.18;;;19.80;82.50;;;;;;6244979;23;20087;-78
2023/10/18 02:37:01;;;;;;;7.55;3.97;;;19.80;82.50;;;;;;6244930;23;20004;-77
2023/10/18 02:39:33;;;;;;;8.18;3.72;;;19.80;82.60;;;;;;6245111;23;20004;-77
2023/10/18 02:41:59;;;;;;;8.03;3.70;;;19.70;82.90;;;;;;6245032;23;20055;-77
2023/10/18 02:44:28;;;;;;;13.88;4.15;;;19.70;82.80;;;;;;6245037;23;20430;-78
2023/10/18 02:46:55;;;;;;;7.70;3.90;;;19.70;83.00;;;;;;6245049;23;20083;-77
2023/10/18 02:49:27;;;;;;;8.82;4.00;;;19.60;83.10;;;;;;6244896;23;20012;-77
2023/10/18 02:51:53;;;;;;;6.32;3.85;;;19.60;83.30;;;;;;6245335;23;20016;-76
2023/10/18 02:54:23;;;;;;;8.48;3.72;;;19.60;83.30;;;;;;6246439;23;20006;-78
2023/10/18 02:56:53;;;;;;;7.82;4.05;;;19.60;83.40;;;;;;6249928;23;20008;-77
2023/10/18 02:59:24;;;;;;;9.05;4.13;;;19.60;83.60;;;;;;6245607;23;20066;-77
2023/10/18 03:01:54;;;;;;;10.13;4.60;;;19.60;83.60;;;;;;6246025;23;20082;-77
2023/10/18 03:04:22;;;;;;;10.95;4.35;;;19.60;83.50;;;;;;6244836;23;20008;-78
2023/10/18 03:06:50;;;;;;;7.60;4.18;;;19.60;83.50;;;;;;6245067;23;20035;-77
2023/10/18 03:11:57;;;;;;;11.75;4.43;;;19.60;83.60;;;;;;6246647;23;20012;-77
2023/10/18 03:14:35;;;;;;;8.45;4.53;;;19.60;83.50;;;;;;6244821;23;20115;-77
2023/10/18 03:17:13;;;;;;;8.20;4.60;;;19.50;83.50;;;;;;6245116;23;20034;-78
2023/10/18 03:19:39;;;;;;;10.93;4.85;;;19.60;83.80;;;;;;6245089;23;20000;-78
2023/10/18 03:22:06;;;;;;;14.65;4.90;;;19.50;83.50;;;;;;6244929;23;20004;-78
2023/10/18 03:24:32;;;;;;;8.60;4.85;;;19.50;83.60;;;;;;6244920;23;20018;-77
2023/10/18 03:27:07;;;;;;;11.57;4.95;;;19.50;83.70;;;;;;6244982;23;19999;-76
2023/10/18 03:29:37;;;;;;;12.38;5.20;;;19.50;83.70;;;;;;6245240;23;20381;-78
2023/10/18 03:32:06;;;;;;;13.05;5.47;;;19.50;83.70;;;;;;6244867;23;20004;-77
2023/10/18 03:34:35;;;;;;;10.23;5.10;;;19.50;83.70;;;;;;6217812;23;20074;-78
2023/10/18 03:37:04;;;;;;;11.38;5.15;;;19.50;84.20;;;;;;6244368;23;20438;-78
2023/10/18 03:39:30;;;;;;;11.80;5.65;;;19.50;84.10;;;;;;6246841;23;20004;-75
2023/10/18 03:41:58;;;;;;;11.05;5.13;;;19.50;84.00;;;;;;6247203;23;20071;-76
2023/10/18 03:44:27;;;;;;;12.00;5.53;;;19.40;84.20;;;;;;6219835;23;20102;-76
2023/10/18 03:51:56;;;;;;;11.73;5.32;;;19.40;84.40;;;;;;6249632;23;20012;-76
2023/10/18 03:54:27;;;;;;;12.00;5.50;;;19.40;84.20;;;;;;6247379;23;20000;-78
2023/10/18 03:56:54;;;;;;;9.70;5.38;;;19.40;84.30;;;;;;6247221;23;20322;-76
2023/10/18 03:59:21;;;;;;;11.48;5.22;;;19.40;84.20;;;;;;6246777;23;20394;-75
2023/10/18 04:04:37;;;;;;;11.43;5.28;;;19.40;84.10;;;;;;6247740;23;20051;-78
2023/10/18 04:07:12;;;;;;;9.15;5.25;;;19.40;84.00;;;;;;6247953;23;20003;-77
2023/10/18 04:09:53;;;;;;;12.90;5.75;;;19.40;84.10;;;;;;6246495;23;20066;-78
2023/10/18 04:12:22;;;;;;;11.10;5.35;;;19.40;84.10;;;;;;6247121;23;20055;-77
2023/10/18 04:15:00;;;;;;;11.40;5.80;;;19.30;84.20;;;;;;6247650;23;20000;-79
2023/10/18 04:17:37;;;;;;;12.35;5.97;;;19.30;84.50;;;;;;6247095;23;20035;-78
2023/10/18 04:20:31;;;;;;;11.98;5.40;;;19.30;84.50;;;;;;6246117;23;20414;-77
2023/10/18 04:22:50;;;;;;;9.35;5.50;;;19.20;84.70;;;;;;6245457;23;20101;-76
2023/10/18 04:25:32;;;;;;;8.95;5.32;;;19.20;84.50;;;;;;6246267;23;20008;-75
2023/10/18 04:27:58;;;;;;;11.32;5.25;;;19.20;84.50;;;;;;6219590;23;20004;-78
2023/10/18 04:30:30;;;;;;;10.13;5.70;;;19.20;84.70;;;;;;6246318;23;20004;-78
2023/10/18 04:33:00;;;;;;;8.38;5.55;;;19.20;84.90;;;;;;6246391;23;19999;-78
2023/10/18 04:35:32;;;;;;;10.00;5.90;;;19.10;84.60;;;;;;6246103;23;20008;-76
2023/10/18 04:37:58;;;;;;;8.32;5.55;;;19.10;84.70;;;;;;6246190;23;19996;-76
2023/10/18 04:40:28;;;;;;;9.52;6.03;;;19.10;84.60;;;;;;6246591;23;20079;-78
2023/10/18 04:42:57;;;;;;;10.15;6.18;;;19.10;84.90;;;;;;6246054;23;20036;-77
2023/10/18 04:45:23;;;;;;;12.80;6.70;;;19.10;85.00;;;;;;6246276;23;20154;-78
2023/10/18 04:47:50;;;;;;;9.95;5.80;;;19.10;85.00;;;;;;6246026;23;20391;-77
2023/10/18 04:50:33;;;;;;;10.40;5.93;;;19.10;84.90;;;;;;6245987;23;20008;-76
2023/10/18 04:53:03;;;;;;;13.73;6.45;;;19.10;85.00;;;;;;6246059;23;19996;-78
2023/10/18 04:55:32;;;;;;;11.63;6.47;;;19.10;84.60;;;;;;6246004;23;20054;-78
2023/10/18 04:57:58;;;;;;;8.95;5.55;;;19.10;84.70;;;;;;6245744;23;20330;-76
2023/10/18 05:01:07;;;;;;;8.52;5.55;;;19.10;84.60;;;;;;6219088;23;20012;-77
2023/10/18 05:03:13;;;;;;;11.35;6.40;;;19.20;84.70;;;;;;6230306;23;20521;-76
2023/10/18 05:05:45;;;;;;;15.10;5.97;;;19.10;84.60;;;;;;6246305;23;20319;-78
2023/10/18 05:08:16;;;;;;;10.73;6.43;;;19.10;84.60;;;;;;6246852;23;20019;-78
2023/10/18 05:10:45;;;;;;;13.60;6.38;;;19.10;84.60;;;;;;6246608;23;20027;-78
2023/10/18 05:13:56;;;;;;;10.93;6.43;;;19.10;84.40;;;;;;6246548;23;20454;-76
2023/10/18 05:16:02;;;;;;;11.32;6.25;;;19.10;84.30;;;;;;6235547;23;20036;-78
2023/10/18 05:18:30;;;;;;;10.25;6.05;;;19.10;84.40;;;;;;6245848;23;20472;-79
2023/10/18 05:20:57;;;;;;;16.58;7.18;;;19.10;84.40;;;;;;6246068;23;20012;-77
2023/10/18 05:23:24;;;;;;;10.20;5.90;;;19.10;84.30;;;;;;6246159;23;20390;-78
2023/10/18 05:25:58;;;;;;;12.45;6.97;;;19.10;84.20;;;;;;6246044;23;20011;-78
2023/10/18 05:28:28;;;;;;;10.32;6.25;;;19.10;84.30;;;;;;6245614;23;20000;-78
2023/10/18 05:43:59;;;;;;;15.60;6.25;;;19.10;83.80;;;;;;6247512;23;20410;-78
2023/10/18 05:46:31;;;;;;;13.77;6.43;;;19.10;84.00;;;;;;6245588;23;20521;-78
2023/10/18 05:48:57;;;;;;;13.15;5.90;;;19.20;83.60;;;;;;6245743;23;19997;-78
2023/10/18 05:51:29;;;;;;;13.02;6.20;;;19.20;83.50;;;;;;6244964;23;20497;-80
2023/10/18 05:54:04;;;;;;;9.90;5.88;;;19.20;83.10;;;;;;6245591;23;20008;-78
2023/10/18 05:56:31;;;;;;;10.68;5.70;;;19.20;83.10;;;;;;6245367;23;20426;-79
2023/10/18 06:01:49;;;;;;;13.32;6.45;;;19.20;83.30;;;;;;6246021;23;20093;-80
2023/10/18 06:04:23;;;;;;;11.93;5.93;;;19.30;82.90;;;;;;6217950;23;20051;-80
2023/10/18 06:06:51;;;;;;;12.68;6.90;;;19.30;82.90;;;;;;6245959;23;20406;-78
2023/10/18 23:23:05;;;;;;;8.60;3.83;;;20.60;76.30;;;;;;6271321;22;20109;-78
2023/10/18 23:30:35;;;;;;;8.43;3.42;;;20.60;76.50;;;;;;6290548;22;20023;-84
2023/10/18 23:33:10;;;;;;;8.38;3.83;;;20.70;76.10;;;;;;6286450;22;20425;-85
2023/10/18 23:35:45;;;;;;;9.93;3.83;;;20.70;75.90;;;;;;6286206;22;20406;-83
2023/10/18 23:38:24;;;;;;;8.48;3.65;;;20.70;75.80;;;;;;6283886;22;20038;-87
2023/10/18 23:41:06;;;;;;;11.68;4.00;;;20.70;76.20;;;;;;6277044;22;20376;-85
2023/10/18 23:43:45;;;;;;;9.57;3.85;;;20.60;75.90;;;;;;6278434;22;20012;-85
2023/10/18 23:46:29;;;;;;;11.15;4.40;;;20.70;75.80;;;;;;6277208;22;20007;-86
2023/10/18 23:51:54;;;;;;;7.63;3.40;;;20.80;75.80;;;;;;6205371;22;20015;-87
2023/10/18 23:54:20;;;;;;;8.35;3.72;;;20.80;75.10;;;;;;6277134;22;19996;-87
2023/10/18 23:56:54;;;;;;;9.20;3.33;;;20.80;75.10;;;;;;6278215;22;20004;-86
2023/10/18 23:59:29;;;;;;;9.55;3.20;;;20.90;75.30;;;;;;6250897;22;20098;-86
